Time;durP1;ratioP1;P1;durP2;ratioP2;P2;SDS_P1;SDS_P2;PMS_P1;PMS_P2;Temp;Humidity;BMP_temperature;BMP_pressure;BME280_temperature;BME280_humidity;BME280_pressure;Samples;Min_cycle;Max_cycle;Signal;HPM_P1;HPM_P2
2022/08/23 00:02:27;;;;;;;8.40;7.50;;;;;;;16.23;96.21;96879.98;109987;1250;71440;-64
2022/08/23 00:04:57;;;;;;;7.80;6.70;;;;;;;16.23;96.01;96876.63;110038;1250;69277;-65
2022/08/23 00:07:40;;;;;;;8.30;6.40;;;;;;;16.22;92.90;96875.69;109971;1250;69241;-64
2022/08/23 00:10:13;;;;;;;9.20;7.10;;;;;;;16.19;92.61;96877.73;110059;1250;59782;-67
2022/08/23 00:12:45;;;;;;;8.10;6.30;;;;;;;16.16;91.84;96878.36;110116;1250;59700;-65
2022/08/23 00:15:19;;;;;;;8.50;6.30;;;;;;;16.13;91.79;96879.08;110069;1249;71632;-66
2022/08/23 00:17:49;;;;;;;9.40;7.10;;;;;;;16.11;93.37;96884.87;110045;1250;69409;-64
2022/08/23 00:20:19;;;;;;;9.60;7.10;;;;;;;16.09;93.56;96882.85;110010;1249;68834;-65
2022/08/23 00:22:49;;;;;;;10.50;7.70;;;;;;;16.06;93.16;96883.27;110030;1250;59755;-65
2022/08/23 00:25:19;;;;;;;7.60;6.50;;;;;;;16.02;93.06;96873.50;110027;1248;59672;-64
2022/08/23 00:27:48;;;;;;;8.40;6.30;;;;;;;15.99;95.70;96870.80;110027;1249;71616;-65
2022/08/23 00:30:18;;;;;;;9.20;6.20;;;;;;;15.95;96.22;96862.77;110032;1250;68551;-64
2022/08/23 00:32:47;;;;;;;;;;;;;;;15.91;96.99;96862.51;109858;1250;69578;-65
2022/08/23 00:35:19;;;;;;;8.60;5.50;;;;;;;15.87;96.60;96864.55;110028;1249;59758;-65
2022/08/23 00:37:56;;;;;;;6.80;5.70;;;;;;;15.84;94.81;96865.70;110079;1250;59711;-65
2022/08/23 00:40:49;;;;;;;8.60;6.00;;;;;;;15.82;94.40;96868.53;109988;1249;71671;-64
2022/08/23 00:49:15;;;;;;;11.10;8.00;;;;;;;15.79;93.60;96873.19;110076;1249;59772;-65
2022/08/23 00:51:47;;;;;;;9.90;7.70;;;;;;;15.77;94.66;96878.52;110043;1249;59786;-64
2022/08/23 00:54:23;;;;;;;9.40;8.20;;;;;;;15.73;96.58;96882.74;110029;1249;69762;-65
2022/08/23 00:56:56;;;;;;;11.30;8.20;;;;;;;15.68;96.88;96887.33;109993;1248;69391;-65
2022/08/23 00:59:26;;;;;;;10.20;7.90;;;;;;;15.65;96.49;96886.25;110032;1248;68931;-63
2022/08/23 01:01:56;;;;;;;;;;;;;;;15.63;96.23;96883.30;109987;1248;59712;-64
2022/08/23 01:04:35;;;;;;;11.60;7.80;;;;;;;15.60;97.01;96881.98;109616;1250;59702;-64
2022/08/23 01:07:35;;;;;;;8.40;6.00;;;;;;;15.58;96.08;96882.38;110029;1249;70971;-65
2022/08/23 01:10:28;;;;;;;9.40;7.30;;;;;;;15.58;95.98;96879.27;109914;1249;69419;-66
2022/08/23 01:13:08;;;;;;;12.80;8.80;;;;;;;15.57;98.62;96886.13;110042;1248;69339;-65
2022/08/23 01:15:47;;;;;;;10.90;8.10;;;;;;;15.57;98.66;96887.42;110053;1250;59694;-66
2022/08/23 01:18:23;;;;;;;9.40;7.40;;;;;;;15.57;98.37;96889.73;110046;1249;59699;-65
2022/08/23 01:21:02;;;;;;;9.60;8.10;;;;;;;15.56;98.19;96888.38;110094;1250;71669;-66
2022/08/23 01:23:51;;;;;;;7.80;6.20;;;;;;;15.53;97.82;96891.42;110064;1249;68606;-65
2022/08/23 01:26:23;;;;;;;8.50;6.10;;;;;;;15.53;97.14;96892.55;109985;1249;68560;-65
2022/08/23 01:28:53;;;;;;;9.70;7.60;;;;;;;15.52;96.48;96892.83;109826;1250;59690;-65
2022/08/23 01:31:26;;;;;;;9.40;7.20;;;;;;;15.50;97.97;96898.45;109798;1250;59752;-65
2022/08/23 01:34:06;;;;;;;9.20;6.50;;;;;;;15.49;96.78;96900.52;109891;1250;70926;-66
2022/08/23 01:36:37;;;;;;;10.60;8.00;;;;;;;15.48;95.76;96904.65;109952;1249;69436;-66
2022/08/23 01:39:08;;;;;;;11.90;8.00;;;;;;;15.46;97.79;96906.62;109831;1250;69380;-65
2022/08/23 01:41:40;;;;;;;10.30;6.80;;;;;;;15.44;98.50;96907.67;109836;1250;59808;-65
2022/08/23 01:44:10;;;;;;;9.40;7.20;;;;;;;15.42;98.66;96903.10;109833;1250;59606;-65
2022/08/23 01:46:46;;;;;;;9.00;6.90;;;;;;;15.41;99.66;96901.35;109883;1250;71522;-64
2022/08/23 01:49:23;;;;;;;10.50;7.70;;;;;;;15.38;99.29;96904.09;109742;1249;69519;-64
2022/08/23 01:51:54;;;;;;;9.90;7.00;;;;;;;15.36;99.15;96903.42;109804;1250;69280;-65
2022/08/23 01:54:25;;;;;;;9.50;6.70;;;;;;;15.34;98.97;96903.30;109614;1250;59943;-64
2022/08/23 01:56:55;;;;;;;10.10;7.10;;;;;;;15.32;98.43;96906.75;109669;1250;59710;-64
2022/08/23 01:59:27;;;;;;;7.70;6.40;;;;;;;15.32;98.93;96908.86;109834;1247;71372;-65
2022/08/23 02:01:59;;;;;;;8.00;5.80;;;;;;;15.32;98.87;96905.40;109708;1250;68952;-65
2022/08/23 02:04:29;;;;;;;;;;;;;;;15.32;98.58;96908.89;110027;1247;69543;-65
2022/08/23 02:06:59;;;;;;;10.60;7.80;;;;;;;15.31;99.56;96913.92;109721;1249;59722;-65
2022/08/23 02:09:31;;;;;;;12.50;9.10;;;;;;;15.28;98.71;96919.75;109664;1250;60144;-64
2022/08/23 02:12:04;;;;;;;11.90;9.50;;;;;;;15.25;96.72;96920.59;109705;1250;71558;-66
2022/08/23 02:14:40;;;;;;;10.40;7.80;;;;;;;15.17;99.29;96919.28;110048;1250;69386;-65
2022/08/23 02:17:21;;;;;;;11.10;9.10;;;;;;;15.05;100.00;96918.80;110042;1249;67641;-65
2022/08/23 02:19:52;;;;;;;18.70;9.80;;;;;;;14.97;100.00;96924.77;109887;1250;59715;-65
2022/08/23 02:22:23;;;;;;;11.30;8.30;;;;;;;14.93;100.00;96923.77;109808;1250;59719;-64
2022/08/23 02:24:53;;;;;;;11.60;7.40;;;;;;;14.92;100.00;96919.67;109833;1250;71766;-64
2022/08/23 02:27:25;;;;;;;10.40;6.50;;;;;;;14.94;99.92;96924.98;109695;1250;69492;-66
2022/08/23 02:29:56;;;;;;;9.80;7.50;;;;;;;14.96;98.84;96922.64;109619;1251;68482;-64
2022/08/23 02:32:27;;;;;;;8.40;6.60;;;;;;;14.99;98.03;96926.39;109852;1250;59712;-64
2022/08/23 02:34:58;;;;;;;12.10;8.60;;;;;;;15.03;99.26;96932.34;109623;1250;59708;-64
2022/08/23 02:37:35;;;;;;;14.50;10.10;;;;;;;15.07;100.00;96934.94;109810;1250;71525;-64
2022/08/23 02:40:06;;;;;;;12.10;8.00;;;;;;;15.07;100.00;96937.85;109753;1250;69372;-64
2022/08/23 02:42:36;;;;;;;9.10;6.30;;;;;;;15.08;100.00;96937.63;109675;1251;68584;-65
2022/08/23 02:45:07;;;;;;;8.40;6.20;;;;;;;15.08;100.00;96938.87;109741;1250;59711;-64
2022/08/23 02:47:42;;;;;;;12.50;7.70;;;;;;;15.08;99.73;96941.98;109684;1251;59700;-66
2022/08/23 02:50:20;;;;;;;9.40;6.90;;;;;;;15.08;100.00;96937.13;109767;1250;71617;-64
2022/08/23 02:52:49;;;;;;;;;;;;;;;15.06;99.66;96938.98;109645;1250;69374;-64
2022/08/23 02:55:19;;;;;;;10.00;7.50;;;;;;;15.06;99.29;96940.59;109779;1250;68763;-64
2022/08/23 02:57:50;;;;;;;9.60;7.60;;;;;;;15.06;98.70;96942.67;109653;1250;59718;-64
2022/08/23 03:00:20;;;;;;;;;;;;;;;15.05;97.53;96944.73;109655;1250;60075;-64
2022/08/23 03:02:52;;;;;;;10.90;7.90;;;;;;;15.01;95.91;96941.91;109723;1250;70757;-64
2022/08/23 03:05:22;;;;;;;10.20;7.30;;;;;;;14.97;95.54;96944.44;109593;1250;69231;-64
2022/08/23 03:07:53;;;;;;;11.30;8.00;;;;;;;14.94;95.74;96945.98;109572;1250;69369;-64
2022/08/23 03:10:22;;;;;;;10.70;6.50;;;;;;;14.91;95.89;96949.23;109616;1250;59758;-66
2022/08/23 03:12:59;;;;;;;10.90;6.90;;;;;;;14.88;95.21;96950.48;110000;1249;59707;-64
2022/08/23 03:15:28;;;;;;;10.70;7.60;;;;;;;14.85;95.25;96956.69;109781;1250;71365;-64
2022/08/23 03:17:58;;;;;;;15.40;9.20;;;;;;;14.83;96.19;96959.48;109850;1249;69244;-66
2022/08/23 03:20:28;;;;;;;14.00;9.40;;;;;;;14.83;97.91;96962.02;109815;1250;69413;-65
2022/08/23 03:22:57;;;;;;;14.20;7.80;;;;;;;14.83;98.53;96968.27;110109;1250;59708;-65
2022/08/23 03:25:27;;;;;;;14.30;6.70;;;;;;;14.83;96.92;96975.30;109686;1250;59771;-66
2022/08/23 03:28:22;;;;;;;14.60;9.10;;;;;;;14.81;97.75;96981.27;109805;1250;70717;-65
2022/08/23 03:30:53;;;;;;;13.10;7.80;;;;;;;14.80;99.35;96985.08;109743;1250;68570;-65
2022/08/23 03:33:26;;;;;;;12.10;8.60;;;;;;;14.79;100.00;96985.15;109680;1249;68624;-64
2022/08/23 03:36:05;;;;;;;19.50;9.30;;;;;;;14.78;100.00;96989.08;109731;1250;59774;-64
2022/08/23 03:38:35;;;;;;;13.50;8.60;;;;;;;14.76;100.00;96993.66;109748;1250;59683;-65
2022/08/23 03:41:05;;;;;;;;;;;;;;;14.74;99.58;96999.70;109800;1250;71632;-67
2022/08/23 03:43:35;;;;;;;17.00;9.00;;;;;;;14.72;97.47;97003.21;109754;1251;69576;-65
2022/08/23 03:46:07;;;;;;;10.80;6.90;;;;;;;14.69;97.06;97007.00;109637;1250;69508;-64
2022/08/23 03:48:37;;;;;;;17.80;9.90;;;;;;;14.66;96.94;97007.10;109644;1250;59711;-64
2022/08/23 03:51:07;;;;;;;14.50;8.10;;;;;;;14.65;96.65;97011.76;109639;1250;59740;-64
2022/08/23 03:53:39;;;;;;;14.60;7.70;;;;;;;14.64;96.31;97013.63;109633;1250;70761;-64
2022/08/23 03:56:08;;;;;;;15.70;8.40;;;;;;;14.63;96.25;97019.98;109765;1250;69574;-65
2022/08/23 03:58:38;;;;;;;11.80;6.70;;;;;;;14.65;96.24;97026.16;110083;1247;69434;-67
2022/08/23 04:01:08;;;;;;;11.50;7.70;;;;;;;14.66;96.34;97026.40;109917;1247;60140;-65
2022/08/23 04:03:38;;;;;;;11.60;8.20;;;;;;;14.68;97.25;97028.27;109830;1247;59763;-64
2022/08/23 04:06:08;;;;;;;;;;;;;;;14.73;100.00;97029.57;110074;1248;71026;-64
2022/08/23 04:08:38;;;;;;;9.20;7.10;;;;;;;14.78;100.00;97023.51;109837;1250;68589;-65
2022/08/23 04:11:08;;;;;;;11.20;7.90;;;;;;;14.87;100.00;97027.70;109694;1250;68760;-65
2022/08/23 04:13:39;;;;;;;11.50;8.50;;;;;;;14.97;100.00;97030.95;109692;1250;59846;-65
2022/08/23 04:16:09;;;;;;;11.80;8.50;;;;;;;15.08;100.00;97031.11;110020;1247;59757;-64
2022/08/23 04:18:40;;;;;;;10.20;7.40;;;;;;;15.19;100.00;97031.05;110009;1249;71514;-63
2022/08/23 04:21:15;;;;;;;9.70;6.70;;;;;;;15.30;100.00;97033.67;109737;1249;69568;-64
2022/08/23 04:23:46;;;;;;;16.40;10.50;;;;;;;15.41;100.00;97035.11;109641;1250;68708;-64
2022/08/23 04:26:15;;;;;;;10.20;7.50;;;;;;;15.49;100.00;97038.02;109717;1250;60139;-64
2022/08/23 04:28:44;;;;;;;9.70;7.10;;;;;;;15.57;100.00;97031.59;109671;1250;59714;-67
2022/08/23 04:31:16;;;;;;;11.40;7.70;;;;;;;15.64;100.00;97030.39;110091;1250;71583;-65
2022/08/23 04:33:46;;;;;;;9.90;6.80;;;;;;;15.70;100.00;97033.52;109848;1250;69655;-65
2022/08/23 04:36:20;;;;;;;9.60;6.00;;;;;;;15.79;100.00;97034.17;109827;1250;69025;-66
2022/08/23 04:38:51;;;;;;;10.50;7.30;;;;;;;15.88;100.00;97038.89;109806;1250;59767;-66
2022/08/23 04:44:23;;;;;;;8.10;6.40;;;;;;;16.08;99.60;97043.05;109756;1247;71529;-66
2022/08/23 04:46:52;;;;;;;9.80;7.20;;;;;;;16.16;99.11;97043.45;109827;1247;69452;-67
2022/08/23 04:49:22;;;;;;;;;;;;;;;16.21;98.50;97045.40;110100;1247;69398;-65
2022/08/23 04:51:53;;;;;;;8.30;6.50;;;;;;;16.24;98.00;97042.07;110017;1247;59742;-65
2022/08/23 04:54:22;;;;;;;8.40;6.60;;;;;;;16.26;98.16;97041.33;107992;1248;2699150;-65
2022/08/23 04:57:11;;;;;;;7.50;6.40;;;;;;;16.34;98.13;97039.20;110060;1249;69775;-65
2022/08/23 04:59:41;;;;;;;;;;;;;;;16.41;97.72;97041.80;109802;1250;69396;-65
2022/08/23 05:02:10;;;;;;;9.90;6.20;;;;;;;16.46;97.70;97039.96;110073;1247;69504;-65
2022/08/23 05:04:57;;;;;;;9.80;7.00;;;;;;;16.53;97.52;97035.95;109986;1248;59784;-65
2022/08/23 05:07:26;;;;;;;9.40;6.80;;;;;;;16.61;97.47;97041.16;110078;1247;59697;-65
2022/08/23 05:10:12;;;;;;;10.10;7.30;;;;;;;16.70;97.35;97041.27;110083;1247;71546;-66
2022/08/23 05:12:44;;;;;;;11.60;7.60;;;;;;;16.78;97.13;97038.30;110079;1246;68470;-64
2022/08/23 05:15:13;;;;;;;9.20;6.80;;;;;;;16.85;96.50;97032.19;110059;1247;68703;-64
2022/08/23 05:17:46;;;;;;;7.60;5.70;;;;;;;16.95;96.18;97032.33;110039;1247;60139;-64
2022/08/23 05:20:17;;;;;;;9.90;6.30;;;;;;;17.08;95.95;97036.79;109874;1247;59809;-65
2022/08/23 05:22:46;;;;;;;;;;;;;;;17.11;94.98;97037.14;109751;1250;71636;-65
2022/08/23 05:25:21;;;;;;;7.80;5.80;;;;;;;17.06;94.93;97032.59;109743;1248;70090;-64
2022/08/23 05:27:55;;;;;;;8.10;6.20;;;;;;;17.16;94.92;97032.91;109747;1250;68689;-64
2022/08/23 05:30:24;;;;;;;8.40;6.10;;;;;;;17.27;94.74;97035.66;109988;1247;59677;-65
2022/08/23 05:32:54;;;;;;;11.70;6.90;;;;;;;17.39;94.37;97038.63;109681;1250;59696;-65
2022/08/23 05:35:23;;;;;;;11.30;6.60;;;;;;;17.50;93.78;97037.28;109753;1250;72071;-65
2022/08/23 05:37:53;;;;;;;8.60;6.10;;;;;;;17.62;93.04;97034.95;110045;1248;70201;-66
2022/08/23 05:40:22;;;;;;;7.10;5.30;;;;;;;17.70;91.83;97035.69;110581;1249;68932;-65
2022/08/23 05:43:00;;;;;;;10.50;7.40;;;;;;;17.76;91.82;97037.78;110328;1247;59770;-64
2022/08/23 05:45:29;;;;;;;10.20;7.60;;;;;;;17.69;91.45;97038.42;109862;1250;59717;-65
2022/08/23 05:47:58;;;;;;;9.30;7.40;;;;;;;17.67;91.83;97042.65;109669;1249;70920;-66
2022/08/23 05:51:09;;;;;;;9.80;7.60;;;;;;;17.66;91.73;97051.86;109801;1250;69509;-64
2022/08/23 05:53:40;;;;;;;12.90;8.40;;;;;;;17.64;92.26;97051.59;110141;1248;68694;-64
2022/08/23 05:56:17;;;;;;;7.80;5.90;;;;;;;17.64;91.71;97055.33;109842;1249;59757;-65
2022/08/23 05:58:47;;;;;;;8.50;7.00;;;;;;;17.57;92.25;97062.92;110092;1248;59701;-65
2022/08/23 06:01:19;;;;;;;10.20;6.30;;;;;;;17.68;92.07;97063.34;109808;1247;72110;-65
2022/08/23 06:03:51;;;;;;;7.10;5.00;;;;;;;17.84;91.42;97072.27;109773;1250;68649;-65
2022/08/23 06:06:21;;;;;;;7.20;5.50;;;;;;;17.98;90.89;97074.60;109702;1250;69397;-64
2022/08/23 06:09:07;;;;;;;8.30;6.10;;;;;;;18.16;90.31;97077.10;109759;1250;59770;-63
2022/08/23 06:11:38;;;;;;;10.80;9.10;;;;;;;18.28;89.37;97080.61;110007;1247;59678;-66
2022/08/23 06:14:08;;;;;;;10.40;8.20;;;;;;;18.32;88.72;97080.38;110114;1247;69623;-65
2022/08/23 06:16:41;;;;;;;10.40;7.70;;;;;;;18.35;88.80;97084.15;109837;1247;67678;-65
2022/08/23 06:19:15;;;;;;;8.60;5.60;;;;;;;18.48;88.51;97088.73;110026;1247;69592;-64
2022/08/23 06:21:50;;;;;;;8.30;5.90;;;;;;;18.64;87.89;97085.48;110030;1247;59698;-64
2022/08/23 06:24:25;;;;;;;6.00;5.10;;;;;;;18.89;86.83;97083.06;109721;1247;59995;-64
2022/08/23 06:27:00;;;;;;;9.90;7.60;;;;;;;19.11;85.53;97088.08;109998;1247;71991;-67
2022/08/23 06:29:29;;;;;;;9.20;6.80;;;;;;;19.09;85.32;97084.94;109731;1248;70081;-66
2022/08/23 06:32:33;;;;;;;8.40;6.40;;;;;;;19.03;85.06;97086.59;109366;1253;70069;-65
2022/08/23 06:35:23;;;;;;;9.40;7.90;;;;;;;19.15;85.21;97087.60;109559;1250;59717;-67
2022/08/23 06:38:10;;;;;;;9.00;6.40;;;;;;;19.41;83.71;97091.70;110103;1247;59680;-66
2022/08/23 06:41:09;;;;;;;7.00;5.70;;;;;;;19.58;82.42;97093.52;109996;1248;71444;-69
2022/08/23 06:44:10;;;;;;;9.40;8.30;;;;;;;20.07;81.85;97096.33;109534;1250;70328;-64
2022/08/23 06:46:57;;;;;;;10.80;8.30;;;;;;;20.26;79.44;97093.74;109759;1248;69275;-67
2022/08/23 06:49:27;;;;;;;9.90;7.30;;;;;;;20.54;78.57;97090.44;110434;1249;59739;-65
2022/08/23 06:52:04;;;;;;;9.30;7.00;;;;;;;20.91;78.73;97086.95;109994;1250;59698;-66
2022/08/23 06:54:46;;;;;;;;;;;;;;;21.18;76.06;97088.27;110066;1248;72204;-66
2022/08/23 06:57:31;;;;;;;6.50;5.50;;;;;;;21.43;75.38;97084.88;110014;1247;69496;-65
2022/08/23 07:00:20;;;;;;;7.20;5.30;;;;;;;21.71;74.72;97086.77;109667;1250;69874;-66
2022/08/23 07:03:11;;;;;;;8.70;6.30;;;;;;;22.01;73.78;97087.34;109843;1250;59740;-66
2022/08/23 07:05:58;;;;;;;8.70;7.60;;;;;;;22.14;72.05;97085.21;109711;1248;59708;-66
2022/08/23 07:08:29;;;;;;;8.40;7.00;;;;;;;22.13;72.05;97086.19;109741;1250;70240;-65
2022/08/23 07:10:58;;;;;;;9.00;6.50;;;;;;;22.25;71.93;97085.59;109590;1250;68572;-67
2022/08/23 07:13:28;;;;;;;8.40;5.10;;;;;;;22.65;70.47;97084.77;109957;1247;69940;-64
2022/08/23 07:15:59;;;;;;;11.00;8.00;;;;;;;22.96;69.60;97082.91;110029;1247;59719;-65
2022/08/23 07:18:29;;;;;;;10.30;8.60;;;;;;;23.23;67.69;97079.23;110083;1246;59796;-65
2022/08/23 07:21:04;;;;;;;8.30;7.20;;;;;;;23.00;68.54;97079.45;109680;1247;71888;-67
2022/08/23 07:23:33;;;;;;;9.60;7.50;;;;;;;23.42;67.84;97075.35;109952;1247;68588;-67
2022/08/23 07:26:15;;;;;;;7.40;6.40;;;;;;;23.79;66.28;97083.82;109925;1249;69447;-65
2022/08/23 07:28:44;;;;;;;10.30;7.70;;;;;;;24.20;65.49;97083.59;110101;1247;59815;-66
2022/08/23 07:31:18;;;;;;;7.70;6.30;;;;;;;24.19;64.10;97087.46;110119;1247;59694;-65
2022/08/23 07:33:47;;;;;;;9.30;6.60;;;;;;;24.36;62.98;97087.44;110093;1247;72333;-65
2022/08/23 07:36:22;;;;;;;7.50;6.20;;;;;;;24.75;61.99;97090.85;110017;1249;69385;-65
2022/08/23 07:38:52;;;;;;;8.20;6.30;;;;;;;25.05;60.99;97089.70;110063;1247;69581;-65
2022/08/23 07:41:24;;;;;;;6.50;5.70;;;;;;;24.95;59.35;97089.48;109738;1248;59742;-68
2022/08/23 07:43:53;;;;;;;11.30;9.20;;;;;;;25.12;58.65;97083.69;110064;1247;59720;-67
2022/08/23 07:46:24;;;;;;;7.30;6.50;;;;;;;25.28;58.52;97088.48;109693;1248;72146;-68
2022/08/23 07:48:56;;;;;;;9.50;8.30;;;;;;;25.51;59.34;97082.32;110128;1247;69378;-66
2022/08/23 07:51:34;;;;;;;10.10;7.10;;;;;;;25.89;57.19;97079.21;110045;1247;68479;-67
2022/08/23 07:54:05;;;;;;;11.60;7.60;;;;;;;26.18;55.38;97078.98;109888;1250;59617;-68
2022/08/23 07:56:40;;;;;;;13.00;8.30;;;;;;;26.32;55.52;97079.86;110189;1250;59685;-66
2022/08/23 07:59:17;;;;;;;7.70;6.40;;;;;;;26.03;56.41;97077.40;109736;1250;71327;-68
2022/08/23 08:02:12;;;;;;;9.10;7.40;;;;;;;26.39;56.00;97078.87;109844;1247;69630;-67
2022/08/23 08:04:41;;;;;;;7.10;6.20;;;;;;;26.56;54.87;97077.94;109692;1249;69468;-66
2022/08/23 08:07:10;;;;;;;9.40;7.50;;;;;;;26.50;54.60;97080.17;109979;1248;59754;-66
2022/08/23 08:09:53;;;;;;;10.10;8.40;;;;;;;26.43;54.78;97084.39;109489;1251;59697;-66
2022/08/23 08:12:23;;;;;;;10.80;7.40;;;;;;;26.27;54.97;97085.69;109643;1249;72067;-66
2022/08/23 08:14:53;;;;;;;8.00;6.90;;;;;;;26.41;54.02;97086.15;109672;1250;69367;-66
2022/08/23 08:17:27;;;;;;;7.10;6.00;;;;;;;26.44;53.80;97083.61;109800;1250;69336;-66
2022/08/23 08:19:58;;;;;;;10.20;7.40;;;;;;;26.25;54.39;97084.46;109653;1250;59754;-66
2022/08/23 08:22:27;;;;;;;8.00;6.30;;;;;;;26.13;54.95;97085.63;109945;1247;59689;-65
2022/08/23 08:25:22;;;;;;;12.90;7.10;;;;;;;26.44;54.15;97084.16;109963;1248;71972;-65
2022/08/23 08:27:52;;;;;;;9.80;8.40;;;;;;;26.26;54.04;97085.23;109684;1250;69519;-65
2022/08/23 08:30:21;;;;;;;9.20;8.00;;;;;;;26.00;54.73;97084.94;110058;1247;69832;-68
2022/08/23 08:32:50;;;;;;;10.10;7.70;;;;;;;25.88;55.57;97082.05;109747;1250;59805;-66
2022/08/23 08:35:20;;;;;;;8.60;6.50;;;;;;;25.78;55.32;97081.89;110054;1247;59708;-66
2022/08/23 08:37:50;;;;;;;9.40;7.80;;;;;;;25.86;56.55;97091.05;109809;1249;71775;-67
2022/08/23 08:40:33;;;;;;;7.80;6.70;;;;;;;25.92;56.34;97090.05;110001;1249;68602;-66
2022/08/23 08:43:12;;;;;;;9.60;6.80;;;;;;;26.65;54.46;97090.92;109762;1250;68655;-67
2022/08/23 08:45:49;;;;;;;6.10;4.80;;;;;;;27.01;53.28;97094.48;109673;1250;59766;-69
2022/08/23 08:48:29;;;;;;;8.10;5.90;;;;;;;27.62;52.29;97092.21;110108;1248;59691;-67
2022/08/23 08:51:05;;;;;;;8.20;6.90;;;;;;;27.98;50.48;97088.73;110039;1248;72127;-68
2022/08/23 08:53:39;;;;;;;7.90;6.30;;;;;;;27.73;50.46;97089.89;109715;1250;69418;-67
2022/08/23 08:56:23;;;;;;;6.10;5.10;;;;;;;27.57;51.01;97091.48;110001;1248;69085;-67
2022/08/23 08:59:18;;;;;;;7.60;4.90;;;;;;;27.85;50.25;97089.98;110463;1249;59763;-67
2022/08/23 09:01:47;;;;;;;6.80;4.60;;;;;;;28.27;50.14;97095.95;110405;1249;60044;-68
2022/08/23 09:04:21;;;;;;;4.60;3.80;;;;;;;28.98;49.07;97094.06;109762;1250;70660;-67
2022/08/23 09:07:10;;;;;;;6.40;4.20;;;;;;;29.84;46.85;97084.98;110038;1249;69378;-68
2022/08/23 09:09:56;;;;;;;6.20;4.50;;;;;;;30.22;44.90;97087.48;109752;1247;68626;-68
2022/08/23 09:12:41;;;;;;;4.50;3.70;;;;;;;30.45;45.16;97085.70;110031;1247;59770;-67
2022/08/23 09:15:29;;;;;;;6.20;3.40;;;;;;;31.48;43.63;97082.96;110025;1248;59694;-68
2022/08/23 09:18:12;;;;;;;6.00;4.50;;;;;;;32.12;41.54;97081.61;109758;1250;71757;-68
2022/08/23 09:20:43;;;;;;;6.10;4.30;;;;;;;32.01;40.46;97083.37;110024;1248;68506;-69
2022/08/23 09:23:20;;;;;;;4.40;3.20;;;;;;;32.36;39.84;97078.55;109745;1250;69570;-68
2022/08/23 09:25:51;;;;;;;5.60;3.60;;;;;;;32.32;40.04;97072.78;109794;1250;59809;-68
2022/08/23 09:28:22;;;;;;;6.60;4.70;;;;;;;32.09;39.39;97068.38;110074;1247;59640;-68
2022/08/23 09:30:56;;;;;;;7.10;4.60;;;;;;;31.33;40.86;97064.38;110032;1247;70743;-67
2022/08/23 09:33:36;;;;;;;5.70;3.60;;;;;;;31.64;41.12;97060.95;109727;1250;70123;-68
2022/08/23 09:36:16;;;;;;;9.00;4.60;;;;;;;31.31;41.07;97056.42;109789;1247;69235;-66
2022/08/23 09:38:59;;;;;;;6.50;4.10;;;;;;;32.03;40.33;97058.91;109754;1248;59787;-67
2022/08/23 09:41:40;;;;;;;5.90;3.40;;;;;;;31.65;40.09;97054.90;110047;1248;59668;-67
2022/08/23 09:44:13;;;;;;;6.10;4.30;;;;;;;32.36;39.11;97053.66;109793;1247;71582;-67
2022/08/23 09:46:43;;;;;;;6.50;3.50;;;;;;;32.47;39.12;97054.73;109778;1249;69630;-67
2022/08/23 09:49:28;;;;;;;5.00;4.00;;;;;;;32.48;38.86;97050.63;109676;1250;69433;-68
2022/08/23 09:52:33;;;;;;;6.90;3.40;;;;;;;32.92;37.77;97050.70;109684;1249;59694;-68
2022/08/23 09:55:24;;;;;;;7.10;3.80;;;;;;;32.43;38.63;97051.19;109722;1250;59627;-66
2022/08/23 09:57:53;;;;;;;5.80;2.80;;;;;;;32.54;38.26;97052.33;110025;1248;72423;-67
2022/08/23 10:00:27;;;;;;;5.90;3.70;;;;;;;32.51;38.66;97052.42;109729;1250;68942;-67
2022/08/23 10:03:21;;;;;;;5.50;3.40;;;;;;;32.23;39.45;97055.02;110277;1248;69890;-67
2022/08/23 10:05:57;;;;;;;5.90;3.50;;;;;;;33.49;37.98;97050.76;109701;1250;59751;-65
2022/08/23 10:08:31;;;;;;;4.80;3.10;;;;;;;34.06;36.10;97050.20;109907;1250;59740;-67
2022/08/23 10:11:10;;;;;;;5.40;3.40;;;;;;;33.97;36.43;97051.21;109746;1249;72362;-67
2022/08/23 10:13:41;;;;;;;5.60;3.10;;;;;;;33.84;36.88;97048.48;110006;1249;68260;-67
2022/08/23 10:16:38;;;;;;;7.50;3.50;;;;;;;33.79;36.70;97046.52;109799;1250;68880;-67
2022/08/23 10:19:21;;;;;;;6.00;3.90;;;;;;;34.00;36.72;97047.70;109997;1249;59758;-67
2022/08/23 10:22:03;;;;;;;6.90;3.10;;;;;;;34.76;35.54;97048.84;109676;1250;59698;-67
2022/08/23 10:24:43;;;;;;;6.80;4.10;;;;;;;34.28;35.03;97044.64;109583;1250;71091;-66
2022/08/23 10:30:36;;;;;;;7.60;4.30;;;;;;;34.13;35.30;97042.86;109640;1250;69591;-67
2022/08/23 10:33:17;;;;;;;5.50;3.90;;;;;;;33.54;36.43;97049.93;109675;1249;59694;-68
2022/08/23 10:36:02;;;;;;;6.20;3.20;;;;;;;33.84;36.20;97049.46;109727;1250;59759;-67
2022/08/23 10:38:43;;;;;;;7.40;3.50;;;;;;;33.48;36.76;97047.45;110032;1249;70391;-67
2022/08/23 10:41:42;;;;;;;6.00;3.50;;;;;;;33.43;37.92;97043.02;109670;1248;69608;-67
2022/08/23 10:44:20;;;;;;;5.30;3.10;;;;;;;33.29;38.52;97038.84;109676;1250;70202;-66
2022/08/23 10:47:03;;;;;;;3.70;2.80;;;;;;;33.57;37.96;97035.41;110057;1248;59742;-69
2022/08/23 10:49:38;;;;;;;6.10;3.20;;;;;;;33.85;37.44;97032.55;109713;1250;59753;-68
2022/08/23 10:52:16;;;;;;;8.20;3.30;;;;;;;34.33;36.10;97034.36;110139;1247;72212;-68
2022/08/23 10:54:59;;;;;;;6.20;3.30;;;;;;;34.53;35.20;97035.38;109795;1250;68771;-68
2022/08/23 10:57:40;;;;;;;4.70;2.90;;;;;;;35.16;34.43;97033.64;109721;1251;69497;-69
2022/08/23 11:00:21;;;;;;;4.70;2.80;;;;;;;35.32;33.72;97028.14;109771;1251;59761;-67
2022/08/23 11:03:05;;;;;;;6.60;3.40;;;;;;;35.84;33.45;97023.77;110092;1250;59635;-67
2022/08/23 11:05:37;;;;;;;5.00;3.20;;;;;;;35.82;32.81;97024.08;109890;1250;71929;-67
2022/08/23 11:08:40;;;;;;;6.80;3.60;;;;;;;35.62;32.91;97019.44;109855;1250;69213;-68
2022/08/23 11:11:43;;;;;;;7.00;3.40;;;;;;;35.03;33.84;97018.59;109631;1250;68965;-67
2022/08/23 11:14:30;;;;;;;5.40;3.30;;;;;;;34.79;34.12;97014.53;109782;1247;59688;-67
2022/08/23 11:17:07;;;;;;;5.40;2.90;;;;;;;34.69;35.22;97013.41;110036;1247;59692;-67
2022/08/23 11:19:56;;;;;;;7.30;3.50;;;;;;;34.98;35.02;97009.75;109721;1248;70624;-67
2022/08/23 11:22:31;;;;;;;7.00;4.10;;;;;;;35.17;35.45;97001.15;110080;1247;69563;-66
2022/08/23 11:25:05;;;;;;;6.40;3.50;;;;;;;34.74;35.98;96999.89;109686;1250;68783;-68
2022/08/23 11:27:41;;;;;;;6.10;3.60;;;;;;;34.72;35.95;96998.34;109992;1249;59709;-67
2022/08/23 11:30:31;;;;;;;7.70;4.20;;;;;;;34.53;35.07;96992.40;109997;1249;59704;-67
2022/08/23 11:33:18;;;;;;;6.70;4.30;;;;;;;34.79;35.55;96989.84;110027;1248;70731;-66
2022/08/23 11:35:51;;;;;;;9.10;4.30;;;;;;;34.82;36.36;96984.98;109767;1250;69877;-67
2022/08/23 11:38:48;;;;;;;5.70;2.90;;;;;;;35.27;35.04;96981.77;109671;1249;70023;-67
2022/08/23 11:42:07;;;;;;;5.80;3.70;;;;;;;35.35;34.97;96974.48;109791;1250;59685;-67
2022/08/23 11:44:41;;;;;;;7.10;3.30;;;;;;;35.82;34.26;96970.48;109741;1250;59747;-68
2022/08/23 11:47:12;;;;;;;6.90;3.90;;;;;;;35.92;34.29;96968.08;109985;1247;71550;-68
2022/08/23 11:50:11;;;;;;;5.80;3.60;;;;;;;36.23;34.58;96968.26;109709;1250;69829;-66
2022/08/23 11:53:05;;;;;;;5.40;3.50;;;;;;;35.85;34.44;96964.22;110068;1249;68692;-66
2022/08/23 11:55:56;;;;;;;9.10;4.10;;;;;;;36.16;34.39;96966.54;110021;1250;60091;-66
2022/08/23 11:58:54;;;;;;;5.40;3.60;;;;;;;36.08;34.42;96959.73;109741;1250;60120;-67
2022/08/23 12:01:31;;;;;;;5.60;3.20;;;;;;;36.15;34.72;96954.45;109724;1250;71174;-68
2022/08/23 12:04:13;;;;;;;6.70;3.80;;;;;;;36.24;34.87;96952.79;110334;1249;69338;-68
2022/08/23 12:06:56;;;;;;;10.40;4.90;;;;;;;36.22;34.44;96955.95;110041;1247;69222;-68
2022/08/23 12:09:25;;;;;;;10.30;7.20;;;;;;;35.87;33.62;96955.23;110097;1247;59757;-67
2022/08/23 12:11:54;;;;;;;11.00;6.60;;;;;;;35.74;33.65;96948.77;110054;1247;59769;-67
2022/08/23 12:14:41;;;;;;;7.80;3.90;;;;;;;35.65;34.31;96945.23;109683;1250;71893;-68
2022/08/23 12:17:24;;;;;;;8.30;5.70;;;;;;;35.67;33.66;96946.80;110013;1250;68722;-66
2022/08/23 12:20:12;;;;;;;6.30;3.10;;;;;;;36.01;33.24;96947.34;110031;1250;68812;-67